sensor_id;sensor_type;location;lat;lon;timestamp;pressure;altitude;pressure_sealevel;temperature;humidity
39265;BME280;42646;51.910;7.724;2022-09-09T00:00:12;100246.34;;;15.63;100.00
39265;BME280;42646;51.910;7.724;2022-09-09T00:02:41;100237.66;;;15.61;100.00
39265;BME280;42646;51.910;7.724;2022-09-09T00:05:20;100241.97;;;15.62;100.00
39265;BME280;42646;51.910;7.724;2022-09-09T00:07:54;100233.13;;;15.61;100.00
39265;BME280;42646;51.910;7.724;2022-09-09T00:10:28;100233.13;;;15.61;100.00
39265;BME280;42646;51.910;7.724;2022-09-09T00:13:01;100231.25;;;15.62;100.00
39265;BME280;42646;51.910;7.724;2022-09-09T00:15:37;100231.25;;;15.62;100.00
39265;BME280;42646;51.910;7.724;2022-09-09T00:18:14;100230.91;;;15.65;100.00
39265;BME280;42646;51.910;7.724;2022-09-09T00:20:49;100234.47;;;15.65;100.00
39265;BME280;42646;51.910;7.724;2022-09-09T00:23:24;100236.13;;;15.66;100.00
39265;BME280;42646;51.910;7.724;2022-09-09T00:25:59;100229.53;;;15.69;100.00
39265;BME280;42646;51.910;7.724;2022-09-09T00:28:31;100236.41;;;15.71;100.00
39265;BME280;42646;51.910;7.724;2022-09-09T00:31:11;100241.59;;;15.73;100.00
39265;BME280;42646;51.910;7.724;2022-09-09T00:33:41;100235.38;;;15.72;100.00
39265;BME280;42646;51.910;7.724;2022-09-09T00:36:15;100225.31;;;15.74;100.00
39265;BME280;42646;51.910;7.724;2022-09-09T00:38:47;100222.63;;;15.74;100.00
39265;BME280;42646;51.910;7.724;2022-09-09T00:41:18;100225.78;;;15.78;100.00
39265;BME280;42646;51.910;7.724;2022-09-09T00:43:56;100217.25;;;15.74;100.00
39265;BME280;42646;51.910;7.724;2022-09-09T00:49:43;100211.91;;;15.74;100.00
39265;BME280;42646;51.910;7.724;2022-09-09T00:52:25;100211.91;;;15.74;100.00
39265;BME280;42646;51.910;7.724;2022-09-09T00:55:03;100218.47;;;15.72;100.00
39265;BME280;42646;51.910;7.724;2022-09-09T00:57:34;100216.78;;;15.71;100.00
39265;BME280;42646;51.910;7.724;2022-09-09T01:00:18;100220.47;;;15.70;100.00
39265;BME280;42646;51.910;7.724;2022-09-09T01:02:53;100216.13;;;15.69;100.00
39265;BME280;42646;51.910;7.724;2022-09-09T01:05:33;100219.84;;;15.68;100.00
39265;BME280;42646;51.910;7.724;2022-09-09T01:08:12;100220.19;;;15.65;100.00
39265;BME280;42646;51.910;7.724;2022-09-09T01:10:49;100214.34;;;15.61;100.00
39265;BME280;42646;51.910;7.724;2022-09-09T01:13:22;100215.34;;;15.60;100.00
39265;BME280;42646;51.910;7.724;2022-09-09T01:15:53;100210.00;;;15.60;100.00
39265;BME280;42646;51.910;7.724;2022-09-09T01:18:32;100212.00;;;15.58;100.00
39265;BME280;42646;51.910;7.724;2022-09-09T01:21:09;100213.84;;;15.58;100.00
39265;BME280;42646;51.910;7.724;2022-09-09T01:23:53;100206.84;;;15.57;100.00
39265;BME280;42646;51.910;7.724;2022-09-09T01:26:35;100213.84;;;15.58;100.00
39265;BME280;42646;51.910;7.724;2022-09-09T01:29:10;100210.06;;;15.52;100.00
39265;BME280;42646;51.910;7.724;2022-09-09T01:31:42;100220.97;;;15.50;100.00
39265;BME280;42646;51.910;7.724;2022-09-09T01:34:20;100222.19;;;15.48;100.00
39265;BME280;42646;51.910;7.724;2022-09-09T01:36:53;100225.00;;;15.46;100.00
39265;BME280;42646;51.910;7.724;2022-09-09T01:39:23;100225.19;;;15.45;100.00
39265;BME280;42646;51.910;7.724;2022-09-09T01:42:01;100233.63;;;15.42;100.00
39265;BME280;42646;51.910;7.724;2022-09-09T01:44:30;100224.06;;;15.39;100.00
39265;BME280;42646;51.910;7.724;2022-09-09T01:46:59;100222.41;;;15.38;100.00
39265;BME280;42646;51.910;7.724;2022-09-09T01:49:27;100219.09;;;15.36;100.00
39265;BME280;42646;51.910;7.724;2022-09-09T01:51:56;100216.56;;;15.35;100.00
39265;BME280;42646;51.910;7.724;2022-09-09T01:54:32;100220.44;;;15.32;100.00
39265;BME280;42646;51.910;7.724;2022-09-09T01:57:15;100218.94;;;15.30;100.00
39265;BME280;42646;51.910;7.724;2022-09-09T02:00:00;100229.84;;;15.28;100.00
39265;BME280;42646;51.910;7.724;2022-09-09T02:02:45;100219.31;;;15.27;100.00
39265;BME280;42646;51.910;7.724;2022-09-09T02:05:29;100221.16;;;15.26;100.00
39265;BME280;42646;51.910;7.724;2022-09-09T02:08:05;100228.56;;;15.24;100.00
39265;BME280;42646;51.910;7.724;2022-09-09T02:10:55;100231.41;;;15.22;100.00
39265;BME280;42646;51.910;7.724;2022-09-09T02:13:37;100229.75;;;15.21;100.00
39265;BME280;42646;51.910;7.724;2022-09-09T02:16:13;100227.25;;;15.20;100.00
39265;BME280;42646;51.910;7.724;2022-09-09T02:18:48;100232.78;;;15.18;100.00
39265;BME280;42646;51.910;7.724;2022-09-09T02:21:23;100233.78;;;15.17;100.00
39265;BME280;42646;51.910;7.724;2022-09-09T02:23:52;100232.13;;;15.16;100.00
39265;BME280;42646;51.910;7.724;2022-09-09T02:26:21;100229.63;;;15.15;100.00
39265;BME280;42646;51.910;7.724;2022-09-09T02:28:59;100231.47;;;15.14;100.00
39265;BME280;42646;51.910;7.724;2022-09-09T02:31:29;100236.84;;;15.14;100.00
39265;BME280;42646;51.910;7.724;2022-09-09T02:34:04;100230.63;;;15.14;100.00
39265;BME280;42646;51.910;7.724;2022-09-09T02:36:34;100233.31;;;15.14;100.00
39265;BME280;42646;51.910;7.724;2022-09-09T02:39:05;100224.59;;;15.12;100.00
39265;BME280;42646;51.910;7.724;2022-09-09T02:41:37;100226.47;;;15.11;100.00
39265;BME280;42646;51.910;7.724;2022-09-09T02:44:10;100225.81;;;15.09;100.00
39265;BME280;42646;51.910;7.724;2022-09-09T02:46:57;100229.50;;;15.08;100.00
39265;BME280;42646;51.910;7.724;2022-09-09T02:49:40;100235.88;;;15.07;100.00
39265;BME280;42646;51.910;7.724;2022-09-09T02:52:14;100225.50;;;15.04;100.00
39265;BME280;42646;51.910;7.724;2022-09-09T02:54:43;100230.88;;;15.04;100.00
39265;BME280;42646;51.910;7.724;2022-09-09T02:57:16;100227.53;;;15.02;100.00
39265;BME280;42646;51.910;7.724;2022-09-09T02:59:49;100228.72;;;15.00;100.00
39265;BME280;42646;51.910;7.724;2022-09-09T03:02:18;100236.09;;;14.98;100.00
39265;BME280;42646;51.910;7.724;2022-09-09T03:04:52;100238.13;;;14.95;100.00
39265;BME280;42646;51.910;7.724;2022-09-09T03:07:20;100239.16;;;14.94;100.00
39265;BME280;42646;51.910;7.724;2022-09-09T03:09:49;100239.31;;;14.93;100.00
39265;BME280;42646;51.910;7.724;2022-09-09T03:12:23;100239.47;;;14.91;100.00
39265;BME280;42646;51.910;7.724;2022-09-09T03:14:52;100236.16;;;14.89;100.00
39265;BME280;42646;51.910;7.724;2022-09-09T03:17:20;100242.69;;;14.87;100.00
39265;BME280;42646;51.910;7.724;2022-09-09T03:19:52;100241.03;;;14.86;100.00
39265;BME280;42646;51.910;7.724;2022-09-09T03:22:21;100232.34;;;14.84;100.00
39265;BME280;42646;51.910;7.724;2022-09-09T03:24:49;100234.19;;;14.83;100.00
39265;BME280;42646;51.910;7.724;2022-09-09T03:27:17;100231.50;;;14.83;100.00
39265;BME280;42646;51.910;7.724;2022-09-09T03:29:45;100233.34;;;14.83;100.00
39265;BME280;42646;51.910;7.724;2022-09-09T03:32:20;100231.66;;;14.82;100.00
39265;BME280;42646;51.910;7.724;2022-09-09T03:34:48;100235.19;;;14.82;100.00
39265;BME280;42646;51.910;7.724;2022-09-09T03:37:17;100233.34;;;14.83;100.00
39265;BME280;42646;51.910;7.724;2022-09-09T03:39:46;100228.00;;;14.83;100.00
39265;BME280;42646;51.910;7.724;2022-09-09T03:42:16;100229.66;;;14.84;100.00
39265;BME280;42646;51.910;7.724;2022-09-09T03:44:48;100227.13;;;14.82;100.00
39265;BME280;42646;51.910;7.724;2022-09-09T03:47:21;100230.69;;;14.83;100.00
39265;BME280;42646;51.910;7.724;2022-09-09T03:49:53;100230.84;;;14.81;100.00
39265;BME280;42646;51.910;7.724;2022-09-09T03:52:20;100230.00;;;14.81;100.00
39265;BME280;42646;51.910;7.724;2022-09-09T03:54:52;100228.16;;;14.81;100.00
39265;BME280;42646;51.910;7.724;2022-09-09T03:57:20;100222.81;;;14.81;100.00
39265;BME280;42646;51.910;7.724;2022-09-09T03:59:49;100216.59;;;14.81;100.00
39265;BME280;42646;51.910;7.724;2022-09-09T04:02:16;100219.28;;;14.81;100.00
39265;BME280;42646;51.910;7.724;2022-09-09T04:04:46;100221.31;;;14.79;100.00
39265;BME280;42646;51.910;7.724;2022-09-09T04:07:14;100215.78;;;14.80;100.00
39265;BME280;42646;51.910;7.724;2022-09-09T04:09:43;100218.47;;;14.80;100.00
39265;BME280;42646;51.910;7.724;2022-09-09T04:12:13;100217.63;;;14.80;100.00
39265;BME280;42646;51.910;7.724;2022-09-09T04:14:41;100219.47;;;14.79;100.00
39265;BME280;42646;51.910;7.724;2022-09-09T04:17:09;100222.16;;;14.79;100.00
39265;BME280;42646;51.910;7.724;2022-09-09T04:19:37;100228.34;;;14.80;100.00
39265;BME280;42646;51.910;7.724;2022-09-09T04:22:06;100221.13;;;14.80;100.00
39265;BME280;42646;51.910;7.724;2022-09-09T04:24:34;100217.63;;;14.80;100.00
39265;BME280;42646;51.910;7.724;2022-09-09T04:27:02;100221.97;;;14.81;100.00
39265;BME280;42646;51.910;7.724;2022-09-09T04:29:33;100220.13;;;14.81;100.00
39265;BME280;42646;51.910;7.724;2022-09-09T04:32:01;100222.81;;;14.81;100.00
39265;BME280;42646;51.910;7.724;2022-09-09T04:34:29;100220.13;;;14.81;100.00
39265;BME280;42646;51.910;7.724;2022-09-09T04:36:58;100224.47;;;14.82;100.00
39265;BME280;42646;51.910;7.724;2022-09-09T04:39:28;100222.66;;;14.83;100.00
39265;BME280;42646;51.910;7.724;2022-09-09T04:41:58;100227.00;;;14.84;100.00
39265;BME280;42646;51.910;7.724;2022-09-09T04:44:26;100228.66;;;14.85;100.00
39265;BME280;42646;51.910;7.724;2022-09-09T04:46:54;100233.81;;;14.86;100.00
39265;BME280;42646;51.910;7.724;2022-09-09T04:49:21;100233.63;;;14.88;100.00
39265;BME280;42646;51.910;7.724;2022-09-09T04:51:49;100232.66;;;14.89;100.00
39265;BME280;42646;51.910;7.724;2022-09-09T04:54:17;100238.00;;;14.89;100.00
39265;BME280;42646;51.910;7.724;2022-09-09T04:56:47;100238.66;;;14.91;100.00
39265;BME280;42646;51.910;7.724;2022-09-09T04:59:15;100240.31;;;14.92;100.00
39265;BME280;42646;51.910;7.724;2022-09-09T05:01:46;100240.97;;;14.94;100.00
39265;BME280;42646;51.910;7.724;2022-09-09T05:04:14;100239.78;;;14.96;100.00
39265;BME280;42646;51.910;7.724;2022-09-09T05:06:42;100239.78;;;14.96;100.00
39265;BME280;42646;51.910;7.724;2022-09-09T05:09:11;100238.78;;;14.98;100.00
39265;BME280;42646;51.910;7.724;2022-09-09T05:11:39;100233.09;;;15.01;100.00
39265;BME280;42646;51.910;7.724;2022-09-09T05:14:25;100232.06;;;15.02;100.00
39265;BME280;42646;51.910;7.724;2022-09-09T05:16:53;100231.03;;;15.03;100.00
39265;BME280;42646;51.910;7.724;2022-09-09T05:19:22;100226.19;;;15.06;100.00
39265;BME280;42646;51.910;7.724;2022-09-09T05:21:52;100230.34;;;15.09;100.00
39265;BME280;42646;51.910;7.724;2022-09-09T05:24:25;100226.63;;;15.10;100.00
39265;BME280;42646;51.910;7.724;2022-09-09T05:26:56;100225.28;;;15.14;100.00
39265;BME280;42646;51.910;7.724;2022-09-09T05:29:25;100224.25;;;15.15;100.00
39265;BME280;42646;51.910;7.724;2022-09-09T05:31:55;100225.75;;;15.17;100.00
39265;BME280;42646;51.910;7.724;2022-09-09T05:34:23;100221.88;;;15.20;100.00
39265;BME280;42646;51.910;7.724;2022-09-09T05:36:52;100231.41;;;15.22;100.00
39265;BME280;42646;51.910;7.724;2022-09-09T05:39:21;100234.75;;;15.25;100.00
39265;BME280;42646;51.910;7.724;2022-09-09T05:41:49;100229.22;;;15.26;100.00
39265;BME280;42646;51.910;7.724;2022-09-09T05:44:17;100233.22;;;15.30;100.00
39265;BME280;42646;51.910;7.724;2022-09-09T05:46:47;100227.66;;;15.32;100.00
39265;BME280;42646;51.910;7.724;2022-09-09T05:49:15;100230.78;;;15.35;100.00
39265;BME280;42646;51.910;7.724;2022-09-09T05:51:43;100227.97;;;15.37;100.00
39265;BME280;42646;51.910;7.724;2022-09-09T05:54:13;100234.59;;;15.41;100.00
39265;BME280;42646;51.910;7.724;2022-09-09T05:56:46;100227.25;;;15.43;100.00
39265;BME280;42646;51.910;7.724;2022-09-09T05:59:17;100231.03;;;15.48;100.00
39265;BME280;42646;51.910;7.724;2022-09-09T06:01:47;100222.19;;;15.48;100.00
39265;BME280;42646;51.910;7.724;2022-09-09T06:04:25;100236.88;;;15.52;100.00
39265;BME280;42646;51.910;7.724;2022-09-09T06:06:53;100230.31;;;15.55;100.00
39265;BME280;42646;51.910;7.724;2022-09-09T06:09:22;100221.91;;;15.58;100.00
39265;BME280;42646;51.910;7.724;2022-09-09T06:11:49;100226.91;;;15.61;100.00
39265;BME280;42646;51.910;7.724;2022-09-09T06:14:19;100227.59;;;15.63;100.00
39265;BME280;42646;51.910;7.724;2022-09-09T06:16:50;100223.53;;;15.67;100.00
39265;BME280;42646;51.910;7.724;2022-09-09T06:19:25;100225.84;;;15.70;100.00
39265;BME280;42646;51.910;7.724;2022-09-09T06:21:55;100228.38;;;15.71;100.00
39265;BME280;42646;51.910;7.724;2022-09-09T06:24:23;100229.47;;;15.77;100.00
39265;BME280;42646;51.910;7.724;2022-09-09T06:26:51;100226.63;;;15.79;100.00
39265;BME280;42646;51.910;7.724;2022-09-09T06:29:22;100224.38;;;15.82;100.00
39265;BME280;42646;51.910;7.724;2022-09-09T06:31:53;100234.56;;;15.87;100.00
39265;BME280;42646;51.910;7.724;2022-09-09T06:34:22;100231.34;;;15.91;100.00
39265;BME280;42646;51.910;7.724;2022-09-09T06:36:54;100226.44;;;15.95;100.00
39265;BME280;42646;51.910;7.724;2022-09-09T06:39:25;100231.44;;;15.98;100.00
39265;BME280;42646;51.910;7.724;2022-09-09T06:41:54;100236.25;;;16.02;100.00
39265;BME280;42646;51.910;7.724;2022-09-09T06:44:48;100238.41;;;16.07;100.00
39265;BME280;42646;51.910;7.724;2022-09-09T06:47:28;100233.47;;;16.11;100.00
39265;BME280;42646;51.910;7.724;2022-09-09T06:49:57;100236.25;;;16.17;100.00
39265;BME280;42646;51.910;7.724;2022-09-09T06:52:25;100233.84;;;16.22;100.00
39265;BME280;42646;51.910;7.724;2022-09-09T06:54:55;100235.50;;;16.23;100.00
39265;BME280;42646;51.910;7.724;2022-09-09T06:57:25;100243.84;;;16.28;100.00
39265;BME280;42646;51.910;7.724;2022-09-09T07:00:07;100248.03;;;16.31;100.00
39265;BME280;42646;51.910;7.724;2022-09-09T07:02:36;100252.00;;;16.35;100.00
39265;BME280;42646;51.910;7.724;2022-09-09T07:05:06;100249.59;;;16.40;100.00
39265;BME280;42646;51.910;7.724;2022-09-09T07:07:34;100247.38;;;16.44;100.00
39265;BME280;42646;51.910;7.724;2022-09-09T07:10:04;100253.19;;;16.47;100.00
39265;BME280;42646;51.910;7.724;2022-09-09T07:12:32;100246.44;;;16.51;100.00
39265;BME280;42646;51.910;7.724;2022-09-09T07:15:00;100246.50;;;16.58;100.00
39265;BME280;42646;51.910;7.724;2022-09-09T07:17:27;100251.88;;;16.58;100.00
39265;BME280;42646;51.910;7.724;2022-09-09T07:19:59;100246.50;;;16.58;100.00
39265;BME280;42646;51.910;7.724;2022-09-09T07:22:27;100252.16;;;16.63;100.00
39265;BME280;42646;51.910;7.724;2022-09-09T07:24:56;100254.47;;;16.66;100.00
39265;BME280;42646;51.910;7.724;2022-09-09T07:27:24;100255.13;;;16.68;100.00
39265;BME280;42646;51.910;7.724;2022-09-09T07:29:52;100250.88;;;16.74;100.00
39265;BME280;42646;51.910;7.724;2022-09-09T07:32:20;100254.66;;;16.79;100.00
39265;BME280;42646;51.910;7.724;2022-09-09T07:34:48;100256.41;;;16.87;100.00
39265;BME280;42646;51.910;7.724;2022-09-09T07:37:18;100253.22;;;16.98;100.00
39265;BME280;42646;51.910;7.724;2022-09-09T07:39:47;100253.75;;;17.08;100.00
39265;BME280;42646;51.910;7.724;2022-09-09T07:42:18;100247.03;;;17.19;100.00
39265;BME280;42646;51.910;7.724;2022-09-09T07:44:46;100252.28;;;17.27;100.00
39265;BME280;42646;51.910;7.724;2022-09-09T07:47:15;100249.91;;;17.39;100.00
39265;BME280;42646;51.910;7.724;2022-09-09T07:49:46;100255.38;;;17.46;100.00
39265;BME280;42646;51.910;7.724;2022-09-09T07:52:21;100257.53;;;17.57;100.00
39265;BME280;42646;51.910;7.724;2022-09-09T07:54:54;100250.97;;;17.66;100.00
39265;BME280;42646;51.910;7.724;2022-09-09T07:57:23;100257.53;;;17.78;100.00
39265;BME280;42646;51.910;7.724;2022-09-09T07:59:52;100255.06;;;17.83;100.00
39265;BME280;42646;51.910;7.724;2022-09-09T08:02:20;100251.59;;;17.89;100.00
39265;BME280;42646;51.910;7.724;2022-09-09T08:04:48;100256.19;;;17.96;100.00
39265;BME280;42646;51.910;7.724;2022-09-09T08:07:17;100263.31;;;18.03;100.00
39265;BME280;42646;51.910;7.724;2022-09-09T08:09:51;100258.16;;;18.08;100.00
39265;BME280;42646;51.910;7.724;2022-09-09T08:12:24;100253.84;;;18.14;100.00
39265;BME280;42646;51.910;7.724;2022-09-09T08:14:52;100258.63;;;18.19;100.00
39265;BME280;42646;51.910;7.724;2022-09-09T08:17:23;100256.78;;;18.19;100.00
39265;BME280;42646;51.910;7.724;2022-09-09T08:19:51;100257.59;;;18.20;100.00
39265;BME280;42646;51.910;7.724;2022-09-09T08:22:24;100266.13;;;18.23;100.00
39265;BME280;42646;51.910;7.724;2022-09-09T08:24:55;100262.19;;;18.26;100.00
39265;BME280;42646;51.910;7.724;2022-09-09T08:27:23;100268.03;;;18.29;100.00
39265;BME280;42646;51.910;7.724;2022-09-09T08:29:51;100258.53;;;18.33;100.00
39265;BME280;42646;51.910;7.724;2022-09-09T08:32:19;100258.78;;;18.38;100.00
39265;BME280;42646;51.910;7.724;2022-09-09T08:34:48;100261.75;;;18.50;99.36
39265;BME280;42646;51.910;7.724;2022-09-09T08:37:22;100264.53;;;18.70;97.02
39265;BME280;42646;51.910;7.724;2022-09-09T08:39:49;100261.69;;;18.85;96.89
39265;BME280;42646;51.910;7.724;2022-09-09T08:42:31;100259.47;;;19.02;97.08
39265;BME280;42646;51.910;7.724;2022-09-09T08:45:14;100259.09;;;19.25;97.18
39265;BME280;42646;51.910;7.724;2022-09-09T08:47:55;100261.00;;;19.44;95.61
39265;BME280;42646;51.910;7.724;2022-09-09T08:50:30;100257.94;;;19.67;93.28
39265;BME280;42646;51.910;7.724;2022-09-09T08:53:14;100261.88;;;19.84;91.52
39265;BME280;42646;51.910;7.724;2022-09-09T08:55:46;100258.16;;;19.98;90.08
39265;BME280;42646;51.910;7.724;2022-09-09T08:58:21;100257.47;;;20.10;89.16
39265;BME280;42646;51.910;7.724;2022-09-09T09:01:03;100256.88;;;20.14;85.70
39265;BME280;42646;51.910;7.724;2022-09-09T09:03:53;100266.44;;;20.10;85.09
39265;BME280;42646;51.910;7.724;2022-09-09T09:06:35;100259.16;;;20.11;85.77
39265;BME280;42646;51.910;7.724;2022-09-09T09:09:16;100262.03;;;20.29;86.61
39265;BME280;42646;51.910;7.724;2022-09-09T09:11:50;100264.09;;;20.34;86.64
39265;BME280;42646;51.910;7.724;2022-09-09T09:14:22;100271.38;;;20.46;84.81
39265;BME280;42646;51.910;7.724;2022-09-09T09:16:56;100267.00;;;20.52;83.04
39265;BME280;42646;51.910;7.724;2022-09-09T09:19:28;100267.81;;;20.52;81.54
39265;BME280;42646;51.910;7.724;2022-09-09T09:22:01;100266.53;;;20.62;81.12
39265;BME280;42646;51.910;7.724;2022-09-09T09:24:42;100265.47;;;20.63;81.11
39265;BME280;42646;51.910;7.724;2022-09-09T09:27:15;100273.56;;;20.69;80.87
39265;BME280;42646;51.910;7.724;2022-09-09T09:29:51;100267.94;;;20.77;80.27
39265;BME280;42646;51.910;7.724;2022-09-09T09:32:48;100270.63;;;20.77;80.26
39265;BME280;42646;51.910;7.724;2022-09-09T09:35:19;100270.63;;;20.77;77.15
39265;BME280;42646;51.910;7.724;2022-09-09T09:37:47;100270.03;;;20.69;77.35
39265;BME280;42646;51.910;7.724;2022-09-09T09:40:35;100271.72;;;20.63;76.30
39265;BME280;42646;51.910;7.724;2022-09-09T09:43:03;100269.88;;;20.57;76.42
39265;BME280;42646;51.910;7.724;2022-09-09T09:45:42;100277.34;;;20.62;76.40
39265;BME280;42646;51.910;7.724;2022-09-09T09:48:27;100269.00;;;20.70;76.38
39265;BME280;42646;51.910;7.724;2022-09-09T09:50:56;100270.22;;;20.74;76.45
39265;BME280;42646;51.910;7.724;2022-09-09T09:53:26;100264.59;;;20.82;76.63
39265;BME280;42646;51.910;7.724;2022-09-09T09:55:58;100263.50;;;20.90;73.22
39265;BME280;42646;51.910;7.724;2022-09-09T09:58:30;100265.44;;;20.83;71.91
39265;BME280;42646;51.910;7.724;2022-09-09T10:01:02;100266.91;;;20.72;72.99
39265;BME280;42646;51.910;7.724;2022-09-09T10:03:32;100262.75;;;20.69;73.38
39265;BME280;42646;51.910;7.724;2022-09-09T10:06:04;100259.41;;;20.74;75.14
39265;BME280;42646;51.910;7.724;2022-09-09T10:08:34;100245.88;;;20.80;75.10
39265;BME280;42646;51.910;7.724;2022-09-09T10:11:30;100250.59;;;20.92;75.22
39265;BME280;42646;51.910;7.724;2022-09-09T10:14:08;100245.16;;;20.98;75.99
39265;BME280;42646;51.910;7.724;2022-09-09T10:16:51;100252.81;;;21.08;74.11
39265;BME280;42646;51.910;7.724;2022-09-09T10:19:29;100249.47;;;21.13;74.63
39265;BME280;42646;51.910;7.724;2022-09-09T10:22:22;100253.53;;;21.22;72.95
39265;BME280;42646;51.910;7.724;2022-09-09T10:25:25;100253.94;;;21.32;70.61
39265;BME280;42646;51.910;7.724;2022-09-09T10:28:27;100246.88;;;21.24;69.82
39265;BME280;42646;51.910;7.724;2022-09-09T10:31:05;100244.41;;;21.23;70.19
39265;BME280;42646;51.910;7.724;2022-09-09T10:33:46;100241.00;;;21.34;70.09
39265;BME280;42646;51.910;7.724;2022-09-09T10:36:20;100246.00;;;21.37;70.28
39265;BME280;42646;51.910;7.724;2022-09-09T10:38:52;100243.84;;;21.46;70.55
39265;BME280;42646;51.910;7.724;2022-09-09T10:41:34;100250.66;;;21.55;69.83
39265;BME280;42646;51.910;7.724;2022-09-09T10:44:30;100245.28;;;21.73;67.46
39265;BME280;42646;51.910;7.724;2022-09-09T10:47:28;100247.34;;;21.78;66.37
39265;BME280;42646;51.910;7.724;2022-09-09T10:50:18;100252.69;;;21.84;66.65
39265;BME280;42646;51.910;7.724;2022-09-09T10:52:53;100249.38;;;21.82;64.38
39265;BME280;42646;51.910;7.724;2022-09-09T10:55:31;100244.88;;;21.76;63.52
39265;BME280;42646;51.910;7.724;2022-09-09T10:58:03;100239.75;;;21.62;64.51
39265;BME280;42646;51.910;7.724;2022-09-09T11:00:39;100235.41;;;21.60;65.90
39265;BME280;42646;51.910;7.724;2022-09-09T11:03:20;100229.16;;;21.60;64.70
39265;BME280;42646;51.910;7.724;2022-09-09T11:05:53;100222.53;;;21.56;65.50
39265;BME280;42646;51.910;7.724;2022-09-09T11:08:25;100227.28;;;21.60;67.04
39265;BME280;42646;51.910;7.724;2022-09-09T11:11:02;100235.78;;;21.64;66.70
39265;BME280;42646;51.910;7.724;2022-09-09T11:13:35;100232.41;;;21.69;66.17
39265;BME280;42646;51.910;7.724;2022-09-09T11:16:16;100221.31;;;21.77;64.37
39265;BME280;42646;51.910;7.724;2022-09-09T11:18:47;100227.94;;;21.81;63.65
39265;BME280;42646;51.910;7.724;2022-09-09T11:21:20;100231.47;;;21.81;63.13
39265;BME280;42646;51.910;7.724;2022-09-09T11:23:52;100225.84;;;21.83;62.03
39265;BME280;42646;51.910;7.724;2022-09-09T11:26:29;100230.44;;;21.82;61.78
39265;BME280;42646;51.910;7.724;2022-09-09T11:29:17;100228.63;;;21.76;62.45
39265;BME280;42646;51.910;7.724;2022-09-09T11:32:00;100234.84;;;21.77;63.02
39265;BME280;42646;51.910;7.724;2022-09-09T11:34:39;100234.78;;;21.83;63.37
39265;BME280;42646;51.910;7.724;2022-09-09T11:37:21;100232.09;;;21.83;63.90
39265;BME280;42646;51.910;7.724;2022-09-09T11:40:08;100226.50;;;21.78;62.13
39265;BME280;42646;51.910;7.724;2022-09-09T11:42:41;100230.09;;;21.72;61.72
39265;BME280;42646;51.910;7.724;2022-09-09T11:45:15;100237.47;;;21.65;62.24
39265;BME280;42646;51.910;7.724;2022-09-09T11:47:52;100232.88;;;21.66;62.69
39265;BME280;42646;51.910;7.724;2022-09-09T11:50:30;100237.66;;;21.64;62.53
39265;BME280;42646;51.910;7.724;2022-09-09T11:53:20;100228.34;;;21.59;62.67
39265;BME280;42646;51.910;7.724;2022-09-09T11:56:10;100234.75;;;21.65;62.74
39265;BME280;42646;51.910;7.724;2022-09-09T11:58:42;100227.75;;;21.76;62.14
39265;BME280;42646;51.910;7.724;2022-09-09T12:01:25;100224.38;;;21.80;61.63
39265;BME280;42646;51.910;7.724;2022-09-09T12:03:55;100236.78;;;21.95;61.88
39265;BME280;42646;51.910;7.724;2022-09-09T12:06:30;100230.06;;;21.97;59.78
39265;BME280;42646;51.910;7.724;2022-09-09T12:09:07;100233.84;;;21.96;59.28
39265;BME280;42646;51.910;7.724;2022-09-09T12:11:35;100232.19;;;21.95;59.38
39265;BME280;42646;51.910;7.724;2022-09-09T12:14:03;100232.03;;;21.90;58.30
39265;BME280;42646;51.910;7.724;2022-09-09T12:16:33;100222.00;;;21.91;58.17
39265;BME280;42646;51.910;7.724;2022-09-09T12:19:12;100218.47;;;21.90;57.47
39265;BME280;42646;51.910;7.724;2022-09-09T12:21:47;100227.66;;;21.89;58.86
39265;BME280;42646;51.910;7.724;2022-09-09T12:24:25;100225.72;;;21.96;58.88
39265;BME280;42646;51.910;7.724;2022-09-09T12:26:58;100228.41;;;21.96;59.44
39265;BME280;42646;51.910;7.724;2022-09-09T12:29:37;100232.78;;;21.97;58.91
39265;BME280;42646;51.910;7.724;2022-09-09T12:32:11;100223.00;;;21.96;58.71
39265;BME280;42646;51.910;7.724;2022-09-09T12:34:41;100223.81;;;21.97;58.59
39265;BME280;42646;51.910;7.724;2022-09-09T12:37:15;100219.00;;;21.99;59.47
39265;BME280;42646;51.910;7.724;2022-09-09T12:39:49;100209.81;;;22.00;58.36
39265;BME280;42646;51.910;7.724;2022-09-09T12:42:21;100214.56;;;22.04;57.96
39265;BME280;42646;51.910;7.724;2022-09-09T12:44:54;100209.78;;;22.06;57.84
39265;BME280;42646;51.910;7.724;2022-09-09T12:47:27;100221.63;;;22.05;57.24
39265;BME280;42646;51.910;7.724;2022-09-09T12:49:57;100220.81;;;22.05;57.48
39265;BME280;42646;51.910;7.724;2022-09-09T12:52:29;100222.69;;;22.04;57.40
39265;BME280;42646;51.910;7.724;2022-09-09T12:55:02;100208.78;;;22.01;57.17
39265;BME280;42646;51.910;7.724;2022-09-09T12:57:35;100212.53;;;22.00;56.83
39265;BME280;42646;51.910;7.724;2022-09-09T13:00:13;100217.59;;;21.96;57.38
39265;BME280;42646;51.910;7.724;2022-09-09T13:02:47;100210.53;;;21.95;57.77
39265;BME280;42646;51.910;7.724;2022-09-09T13:05:19;100215.09;;;21.95;58.20
39265;BME280;42646;51.910;7.724;2022-09-09T13:07:47;100204.63;;;21.98;57.99
39265;BME280;42646;51.910;7.724;2022-09-09T13:10:22;100205.84;;;22.02;58.46
39265;BME280;42646;51.910;7.724;2022-09-09T13:13:13;100210.09;;;22.17;56.81
39265;BME280;42646;51.910;7.724;2022-09-09T13:15:49;100201.16;;;22.16;56.13
39265;BME280;42646;51.910;7.724;2022-09-09T13:18:20;100199.34;;;22.10;56.51